createdAt,value
2023-03-05T00:00:42.685Z,76.1
2023-03-05T00:07:02.639Z,76.86
2023-03-05T00:13:25.627Z,77.4
2023-03-05T00:19:45.657Z,77.91
2023-03-05T00:26:08.643Z,78.25
2023-03-05T00:32:28.670Z,78.23
2023-03-05T00:38:51.642Z,78.13
2023-03-05T00:45:11.651Z,78.45
2023-03-05T00:51:34.653Z,78.4
2023-03-05T00:57:54.685Z,78.5
2023-03-05T01:04:17.638Z,78.53
2023-03-05T01:10:37.616Z,78.68
2023-03-05T01:17:00.596Z,78.82
2023-03-05T01:23:20.628Z,79
2023-03-05T01:29:43.580Z,78.88
2023-03-05T01:36:03.694Z,79.21
2023-03-05T01:42:26.627Z,79.14
2023-03-05T01:48:46.603Z,79.34
2023-03-05T01:55:09.655Z,79.45
2023-03-05T02:01:29.679Z,79.43
2023-03-05T02:07:52.619Z,79.58
2023-03-05T02:14:12.699Z,79.54
2023-03-05T02:20:35.558Z,79.23
2023-03-05T02:26:55.656Z,78.83
2023-03-05T02:33:18.607Z,78.95
2023-03-05T02:39:38.636Z,78.66
2023-03-05T02:46:01.672Z,78.44
2023-03-05T02:52:21.669Z,78.35
2023-03-05T02:58:44.594Z,78.37
2023-03-05T03:05:04.673Z,77.81
2023-03-05T03:11:27.621Z,78.02
2023-03-05T03:17:47.621Z,77.85
2023-03-05T03:24:10.673Z,77.37
2023-03-05T03:30:30.678Z,76.93
2023-03-05T03:36:53.635Z,76.92
2023-03-05T03:43:13.646Z,77.2
2023-03-05T03:49:36.625Z,77.49
2023-03-05T03:55:56.613Z,77.94
2023-03-05T04:02:19.623Z,78.25
2023-03-05T04:25:23.587Z,78.02
2023-03-05T04:31:46.704Z,78.12
2023-03-05T04:38:06.610Z,78.33
2023-03-05T04:44:29.608Z,78.42
2023-03-05T04:50:49.666Z,78.39
2023-03-05T04:57:12.616Z,78.23
2023-03-05T05:03:32.618Z,78.52
2023-03-05T05:09:55.555Z,78.33
2023-03-05T05:16:15.653Z,78.37
2023-03-05T05:22:38.617Z,78.46
2023-03-05T05:28:58.564Z,78.56
2023-03-05T05:35:21.672Z,78.5
2023-03-05T05:41:41.617Z,78.25
2023-03-05T05:48:04.602Z,77.65
2023-03-05T05:54:24.613Z,77.37
2023-03-05T06:00:47.651Z,77.65
2023-03-05T06:07:07.673Z,77.79
2023-03-05T06:13:30.607Z,77.69
2023-03-05T06:19:50.595Z,77.92
2023-03-05T06:26:13.612Z,78.36
2023-03-05T06:32:33.675Z,78.29
2023-03-05T06:38:56.685Z,78.39
2023-03-05T06:45:16.590Z,78.69
2023-03-05T06:51:39.564Z,78.92
2023-03-05T06:57:59.666Z,78.96
2023-03-05T07:04:22.564Z,78.85
2023-03-05T07:10:42.657Z,78.33
2023-03-05T07:17:05.654Z,78.47
2023-03-05T07:23:25.698Z,78.26
2023-03-05T07:29:48.621Z,78.03
2023-03-05T07:36:08.602Z,78.38
2023-03-05T07:42:31.778Z,78.52
2023-03-05T07:48:51.568Z,78.34
2023-03-05T07:55:14.668Z,78.24
2023-03-05T08:01:34.578Z,78.23
2023-03-05T08:07:57.610Z,77.83
2023-03-05T08:14:17.674Z,77.52
2023-03-05T08:20:40.585Z,77.27
2023-03-05T08:27:00.669Z,76.43
2023-03-05T08:33:23.997Z,77.15
2023-03-05T08:39:43.672Z,77
2023-03-05T08:46:06.728Z,76.98
2023-03-05T08:52:26.640Z,76.6
2023-03-05T08:58:50.712Z,75.79
2023-03-05T09:05:10.640Z,76.06
2023-03-05T09:21:21.531Z,74.72
2023-03-05T09:27:41.600Z,74.59
2023-03-05T09:34:05.568Z,74.99
2023-03-05T09:40:25.644Z,75.2
2023-03-05T09:46:48.658Z,75.37
2023-03-05T09:53:08.620Z,75.64
2023-03-05T09:59:31.596Z,75.74
2023-03-05T10:05:51.559Z,75.74
2023-03-05T10:12:14.607Z,75.49
2023-03-05T10:18:34.640Z,75.87
2023-03-05T10:24:57.674Z,74.8
2023-03-05T10:31:17.609Z,73.48
2023-03-05T10:37:40.615Z,72.56
2023-03-05T10:44:00.594Z,72.18
2023-03-05T10:50:23.570Z,72
2023-03-05T10:56:43.654Z,72.75
2023-03-05T11:03:06.621Z,73.75
2023-03-05T11:09:26.639Z,74.98
2023-03-05T11:15:49.636Z,74.95
2023-03-05T11:22:09.568Z,75.4
2023-03-05T11:28:33.909Z,76.6
2023-03-05T11:34:52.679Z,78.82
2023-03-05T11:41:15.561Z,80.64
2023-03-05T11:47:35.606Z,81
2023-03-05T11:53:58.645Z,81.34
2023-03-05T12:00:18.645Z,81.68
2023-03-05T12:06:42.508Z,81.62
2023-03-05T12:13:01.657Z,82.08
2023-03-05T12:19:24.640Z,81.62
2023-03-05T12:25:44.645Z,81.28
2023-03-05T12:32:07.654Z,80.9
2023-03-05T12:38:27.654Z,78.82
2023-03-05T12:44:50.642Z,78.37
2023-03-05T12:51:10.706Z,77.36
2023-03-05T12:57:33.607Z,78.1
2023-03-05T13:03:53.646Z,77.59
2023-03-05T13:10:16.632Z,78.11
2023-03-05T13:16:36.634Z,77.24
2023-03-05T13:22:59.586Z,77.9
2023-03-05T13:29:19.634Z,77.65
2023-03-05T13:35:42.574Z,76.41
2023-03-05T13:42:02.608Z,75.87
2023-03-05T13:48:25.627Z,75.58
2023-03-05T13:54:45.619Z,75.91
2023-03-05T14:01:08.651Z,75.38
2023-03-05T14:07:28.638Z,75.33
2023-03-05T14:13:51.674Z,75.47
2023-03-05T14:36:00.651Z,73.22
2023-03-05T14:42:23.621Z,72.85
2023-03-05T14:48:43.652Z,73.37
2023-03-05T14:55:06.618Z,74.05
2023-03-05T15:01:26.674Z,73.3
2023-03-05T15:07:49.637Z,73.26
2023-03-05T15:14:09.692Z,73.23
2023-03-05T15:20:32.668Z,73.61
2023-03-05T15:26:52.554Z,74.78
2023-03-05T15:33:15.614Z,74.74
2023-03-05T15:39:35.627Z,75.57
2023-03-05T15:45:58.654Z,75.49
2023-03-05T15:52:18.932Z,75.07
2023-03-05T15:58:42.605Z,76.3
2023-03-05T16:05:02.627Z,76.07
2023-03-05T16:11:25.632Z,77.3
2023-03-05T16:17:45.589Z,77.65
2023-03-05T16:24:08.642Z,80.15
2023-03-05T16:30:28.610Z,80.65
2023-03-05T16:36:51.649Z,82.92
2023-03-05T16:43:11.608Z,82.21
2023-03-05T16:49:34.642Z,83.32
2023-03-05T16:55:54.675Z,82.56
2023-03-05T17:02:17.600Z,83.14
2023-03-05T17:08:37.596Z,83.76
2023-03-05T17:15:00.631Z,84.54
2023-03-05T17:21:20.576Z,84.76
2023-03-05T17:27:43.645Z,84.91
2023-03-05T17:34:03.559Z,84.69
2023-03-05T17:40:26.606Z,83.66
2023-03-05T17:46:46.601Z,83.88
2023-03-05T17:53:09.621Z,84.71
2023-03-05T17:59:29.600Z,85.1
2023-03-05T18:05:52.678Z,85.48
2023-03-05T18:12:12.631Z,85.98
2023-03-05T18:18:35.608Z,86.34
2023-03-05T18:24:55.722Z,86.71
2023-03-05T18:31:18.646Z,86.66
2023-03-05T18:37:38.630Z,86.74
2023-03-05T18:44:01.650Z,86.76
2023-03-05T18:50:21.621Z,86.66
2023-03-05T18:56:44.628Z,86.63
2023-03-05T19:03:04.968Z,86.68
2023-03-05T19:09:27.580Z,86.36
2023-03-05T19:15:47.613Z,86.3
2023-03-05T19:39:28.579Z,85.54
2023-03-05T19:45:51.589Z,84.88
2023-03-05T19:52:11.548Z,84.34
2023-03-05T19:58:34.589Z,83.86
2023-03-05T20:04:54.561Z,83.49
2023-03-05T20:11:17.576Z,83.21
2023-03-05T20:17:37.632Z,83.66
2023-03-05T20:24:00.596Z,83.95
2023-03-05T20:30:20.625Z,84.16
2023-03-05T20:36:43.645Z,84.35
2023-03-05T20:43:03.653Z,84.63
2023-03-05T20:49:26.582Z,85.02
2023-03-05T20:55:46.658Z,85.78
2023-03-05T21:02:09.687Z,86
2023-03-05T21:08:29.622Z,86.27
2023-03-05T21:14:52.639Z,86.42
2023-03-05T21:21:12.616Z,86.64
2023-03-05T21:27:35.607Z,86.48
2023-03-05T21:33:55.670Z,86.96
2023-03-05T21:40:18.636Z,86.57
2023-03-05T21:46:38.599Z,86.62
2023-03-05T21:53:01.596Z,86.59
2023-03-05T21:59:21.588Z,86.57
2023-03-05T22:05:44.630Z,86.33
2023-03-05T22:12:04.625Z,86.51
2023-03-05T22:18:27.603Z,86.75
2023-03-05T22:24:47.640Z,86.5
2023-03-05T22:31:10.693Z,86.59
2023-03-05T22:37:30.639Z,86.68
2023-03-05T22:43:53.592Z,86.54
2023-03-05T22:50:13.637Z,86.15
2023-03-05T22:56:36.611Z,86.25
2023-03-05T23:20:50.609Z,86.61
2023-03-05T23:27:10.566Z,87.21
2023-03-05T23:33:33.626Z,87.24
2023-03-05T23:39:53.660Z,87.49
2023-03-05T23:46:16.629Z,87.38
2023-03-05T23:52:36.688Z,86.88
2023-03-05T23:58:59.673Z,87.29
